• Join FlightAware (Why Join?)
  • Login
  • US Flag 
11:33AM EDT


 

Airport Tracker/Info


-or-


 

Live Flight TrackerFlight Track Log ✈ N4200B ✈ 03-Aug-2014 ✈ KAPF - KLNA

Flight Track Log - Related Links

Times and Time Zones

All times are in EDT time to prevent confusion due to time zone crossing. See the N4200B flight status page for this flight to view local times or setup timezone preferences in your user account.

Time Position Orientation Groundspeed Altitude Reporting Facility
EDT Latitude Longitude Course Direction KTS MPH feet Rate Location/Type
06:24PM 26.1106 -81.8111 73° East 91 105 1,300  Level Miami Center
06:25PM 26.0872 -81.7947 148° Southeast 94 108 1,800 480 Climbing Miami Center
06:26PM 26.0656 -81.7783 146° Southeast 94 108 2,300 420 Climbing Miami Center
06:27PM 26.0547 -81.7522 115° Southeast 96 110 2,700 300 Climbing Miami Center
06:28PM 26.2040 -81.5823 73° East  Level Estimated
06:28PM 26.0561 -81.7231 87° East 96 110 3,000  Level Miami Center
06:29PM 26.2126 -81.5501 73° East  Level Estimated
06:29PM 26.0594 -81.6928 83° East 95 109 3,400  Level Miami Center
06:30PM 26.0686 -81.6711 65° Northeast 83 96 3,800 360 Climbing Miami Center
06:31PM 26.0781 -81.6456 68° East 83 96 4,200 300 Climbing Miami Center
06:32PM 26.0864 -81.6211 69° East 83 96 4,500 300 Climbing Miami Center
06:33PM 26.0958 -81.5953 68° East 83 96 4,900 240 Climbing Miami Center
06:34PM 26.1050 -81.5683 69° East 91 105 5,000  Climbing Miami Center
06:35PM 26.1211 -81.5378 60° Northeast 110 127 5,000 -60 Level Miami Center
06:36PM 26.1506 -81.5350 North 109 125 4,900 -60 Descending Miami Center
06:37PM 26.1811 -81.5297 North 105 121 4,900 180 Level Miami Center
06:38PM 26.2061 -81.5256 North 95 109 5,300 360 Climbing Miami Center
06:39PM 26.2281 -81.5225 North 83 96 5,700 360 Climbing Miami Center
06:40PM 26.2514 -81.5189 North 79 91 6,100 300 Climbing Miami Center
06:41PM 26.2761 -81.5169 North 86 99 6,400 240 Climbing Miami Center
06:42PM 26.3017 -81.5117 10° North 87 100 6,700 240 Climbing Miami Center
06:43PM 26.3222 -81.4992 29° Northeast 87 100 7,000 120 Climbing Miami Center
06:44PM 26.3525 -81.4947 North 103 119 7,000  Level Miami Center
06:45PM 26.3806 -81.4856 16° North 105 121 7,000  Level Miami Center
06:46PM 26.4100 -81.4717 23° Northeast 106 122 7,000  Level Miami Center
06:47PM 26.4367 -81.4611 20° North 105 121 7,000 -60 Level Miami Center
06:48PM 26.4642 -81.4472 24° Northeast 101 116 6,900  Descending Miami Center
06:49PM 26.4892 -81.4372 20° North 97 112 7,000  Climbing Miami Center
06:50PM 26.5186 -81.4269 17° North 100 115 7,000  Level Miami Center
06:51PM 26.5456 -81.4158 20° North 101 116 7,000  Level Miami Center
06:52PM 26.5750 -81.4050 18° North 102 117 7,000  Level Miami Center
06:54PM 26.6011 -81.3936 21° North 102 117 7,000  Level Miami Center
06:55PM 26.6289 -81.3828 19° North 104 120 7,000  Level Miami Center
06:56PM 26.6583 -81.3697 22° Northeast 104 120 7,000  Level Miami Center
06:57PM 26.6819 -81.3517 34° Northeast 104 120 7,000  Level Miami Center
06:58PM 26.7036 -81.3281 44° Northeast 103 119 7,000  Level Miami Center
06:59PM 26.7250 -81.3053 44° Northeast 109 125 7,000  Level Miami Center
07:00PM 26.7458 -81.2803 47° Northeast 105 121 7,000  Level Miami Center
07:01PM 26.7622 -81.2558 53° Northeast 98 113 7,000  Level Miami Center
07:02PM 26.7803 -81.2267 55° Northeast 108 124 7,000  Level Miami Center
07:03PM 26.7956 -81.1975 60° Northeast 109 125 7,000  Level Miami Center
07:04PM 26.8119 -81.1661 60° Northeast 109 125 7,000  Level Miami Center
07:05PM 26.8250 -81.1350 65° Northeast 110 127 7,000  Level Miami Center
07:06PM 26.8367 -81.1003 69° East 110 127 7,000  Level Miami Center
07:07PM 26.8439 -81.0683 76° East 110 127 7,000  Level Miami Center
07:08PM 26.8525 -81.0353 74° East 109 125 7,000  Level Miami Center
07:09PM 26.8594 -81.0017 77° East 109 125 7,000  Level Miami Center
07:10PM 26.8656 -80.9678 79° East 108 124 7,000  Level Miami Center
07:11PM 26.8711 -80.9342 79° East 108 124 7,000  Level Miami Center
07:12PM 26.8761 -80.9028 80° East 107 123 7,000  Level Miami Center
07:13PM 26.8814 -80.8706 80° East 104 120 7,000  Level Miami Center
07:14PM 26.8869 -80.8358 80° East 108 124 7,000  Level Miami Center
07:15PM 26.8925 -80.7997 80° East 109 125 7,000 -60 Level Miami Center
07:16PM 26.8964 -80.7658 83° East 111 128 6,900 -300 Descending Miami Center
07:17PM 26.8986 -80.7244 87° East 124 143 6,500 -540 Descending Miami Center
07:18PM 26.8986 -80.6869 90° East 119 137 5,900 -600 Descending Miami Center
07:19PM 26.8942 -80.6506 98° East 117 135 5,300 -540 Descending Miami Center
07:20PM 26.8892 -80.6117 98° East 117 135 4,800 -540 Descending Miami Center
07:21PM 26.8867 -80.5747 94° East 123 142 4,200 -420 Descending Miami Center
07:22PM 26.8844 -80.5375 94° East 115 132 4,000 -300 Descending Miami Center
07:23PM 26.8811 -80.5058 97° East 102 117 3,700 -360 Descending Miami Center
07:24PM 26.8778 -80.4706 96° East 107 123 3,300 -360 Descending Miami Center
07:25PM 26.8764 -80.4375 93° East 111 128 3,000 -180 Descending Miami Center
07:26PM 26.8739 -80.4047 95° East 104 120 3,000  Level Miami Center
07:27PM 26.8700 -80.3692 97° East 108 124 3,000  Level Miami Center
07:28PM 26.8686 -80.3317 92° East 112 129 3,000 -60 Level Miami Center
07:29PM 26.8664 -80.3003 95° East 112 129 2,900 -60 Descending Miami Center
07:30PM 26.8622 -80.2669 98° East 108 124 2,900  Level Miami Center
07:32PM 26.8369 -80.2442 141° Southeast 111 128 3,000  Climbing Miami Center
07:33PM 26.8111 -80.2242 145° Southeast 110 127 2,900  Descending Miami Center
07:34PM 26.7919 -80.2044 137° Southeast 87 100 3,000  Climbing Miami Center
07:35PM 26.7714 -80.1933 154° Southeast 93 107 3,000  Level Miami Center
07:36PM 26.7439 -80.1817 159° South 104 120 3,000 -300 Level Miami Center
07:37PM 26.7103 -80.1689 161° South 106 122 2,500 -540 Descending Miami Center
07:38PM 26.6803 -80.1578 162° South 113 130 2,000 -540 Descending Miami Center
07:39PM 26.6556 -80.1428 152° Southeast 105 121 1,400 -300 Descending Miami Center
07:40PM 26.6356 -80.1247 141° Southeast 101 116 1,400  Level Miami Center